createdAt,value
2018-04-27T00:02:22.014Z,101399.72
2018-04-27T00:04:49.426Z,101394.50
2018-04-27T00:07:16.897Z,101392.27
2018-04-27T00:09:44.305Z,101390.49
2018-04-27T00:12:11.814Z,101384.62
2018-04-27T00:14:39.230Z,101386.80
2018-04-27T00:17:06.654Z,101380.42
2018-04-27T00:19:35.106Z,101382.91
2018-04-27T00:22:02.545Z,101384.21
2018-04-27T00:24:30.037Z,101380.30
2018-04-27T00:26:57.473Z,101380.42
2018-04-27T00:29:24.894Z,101377.66
2018-04-27T00:31:52.393Z,101371.33
2018-04-27T00:34:19.864Z,101366.59
2018-04-27T00:36:47.303Z,101367.17
2018-04-27T00:39:14.731Z,101363.26
2018-04-27T00:41:42.153Z,101369.91
2018-04-27T00:44:10.569Z,101368.13
2018-04-27T00:46:38.049Z,101370.57
2018-04-27T00:49:05.488Z,101371.89
2018-04-27T00:51:33.886Z,101373.59
2018-04-27T00:54:01.310Z,101372.57
2018-04-27T00:56:28.713Z,101370.88
2018-04-27T00:58:57.155Z,101367.41
2018-04-27T01:01:24.634Z,101367.82
2018-04-27T01:03:52.899Z,101366.84
2018-04-27T01:06:20.366Z,101368.67
2018-04-27T01:08:47.781Z,101370.87
2018-04-27T01:11:15.277Z,101366.53
2018-04-27T01:13:42.702Z,101366.09
2018-04-27T01:16:10.111Z,101369.28
2018-04-27T01:18:37.529Z,101367.00
2018-04-27T01:21:04.950Z,101365.39
2018-04-27T01:23:32.466Z,101366.19
2018-04-27T01:25:59.877Z,101375.55
2018-04-27T01:28:27.314Z,101376.45
2018-04-27T01:30:54.830Z,101371.97
2018-04-27T01:33:22.262Z,101375.30
2018-04-27T01:35:49.674Z,101377.02
2018-04-27T01:38:17.102Z,101378.91
2018-04-27T01:40:44.526Z,101368.73
2018-04-27T01:43:11.959Z,101371.69
2018-04-27T01:45:39.382Z,101365.83
2018-04-27T01:48:06.824Z,101370.70
2018-04-27T01:50:34.241Z,101362.69
2018-04-27T01:53:01.662Z,101368.98
2018-04-27T01:55:29.091Z,101363.16
2018-04-27T01:57:56.554Z,101363.10
2018-04-27T02:00:23.962Z,101369.00
2018-04-27T02:02:51.399Z,101374.67
2018-04-27T02:05:18.818Z,101372.07
2018-04-27T02:07:46.274Z,101367.33
2018-04-27T02:10:13.697Z,101373.84
2018-04-27T02:12:41.123Z,101373.02
2018-04-27T02:15:08.550Z,101375.62
2018-04-27T02:17:35.982Z,101370.92
2018-04-27T02:20:03.458Z,101371.34
2018-04-27T02:22:30.894Z,101366.96
2018-04-27T02:24:58.317Z,101364.25
2018-04-27T02:27:25.755Z,101356.63
2018-04-27T02:29:53.198Z,101358.77
2018-04-27T02:32:20.631Z,101369.67
2018-04-27T02:34:48.049Z,101368.47
2018-04-27T02:37:15.478Z,101363.93
2018-04-27T02:39:42.896Z,101360.79
2018-04-27T02:42:10.361Z,101358.50
2018-04-27T02:44:37.790Z,101354.81
2018-04-27T02:47:05.230Z,101357.89
2018-04-27T02:49:33.617Z,101359.51
2018-04-27T02:52:01.116Z,101355.64
2018-04-27T02:54:28.525Z,101359.86
2018-04-27T02:56:55.953Z,101359.57
2018-04-27T02:59:23.386Z,101363.62
2018-04-27T03:01:50.838Z,101359.17
2018-04-27T03:04:18.290Z,101366.53
2018-04-27T03:06:45.728Z,101364.89
2018-04-27T03:09:13.145Z,101361.95
2018-04-27T03:11:40.577Z,101362.97
2018-04-27T03:14:08.013Z,101353.24
2018-04-27T03:16:35.442Z,101350.09
2018-04-27T03:19:03.851Z,101358.19
2018-04-27T03:21:31.286Z,101360.70
2018-04-27T03:23:58.732Z,101355.59
2018-04-27T03:26:26.238Z,101360.80
2018-04-27T03:28:53.654Z,101357.89
2018-04-27T03:31:21.078Z,101360.33
2018-04-27T03:33:48.498Z,101359.45
2018-04-27T03:36:15.921Z,101357.95
2018-04-27T03:38:43.343Z,101361.73
2018-04-27T03:41:10.773Z,101357.68
2018-04-27T03:43:38.212Z,101359.78
2018-04-27T03:46:05.680Z,101364.76
2018-04-27T03:48:33.085Z,101361.06
2018-04-27T03:51:00.582Z,101359.66
2018-04-27T03:53:28.002Z,101365.30
2018-04-27T03:55:55.438Z,101364.80
2018-04-27T03:58:22.854Z,101366.22
2018-04-27T04:01:02.309Z,101368.80
2018-04-27T04:03:41.586Z,101366.62
2018-04-27T04:06:09.023Z,101372.13
2018-04-27T04:08:36.438Z,101368.61
2018-04-27T04:11:03.896Z,101372.24
2018-04-27T04:13:31.312Z,101377.43
2018-04-27T04:15:58.742Z,101367.88
2018-04-27T04:18:26.166Z,101377.03
2018-04-27T04:20:53.589Z,101376.93
2018-04-27T04:23:21.006Z,101381.11
2018-04-27T04:25:48.429Z,101370.30
2018-04-27T04:28:15.846Z,101377.66
2018-04-27T04:30:43.281Z,101378.84
2018-04-27T04:33:10.702Z,101380.45
2018-04-27T04:35:38.129Z,101375.94
2018-04-27T04:38:05.610Z,101374.00
2018-04-27T04:40:33.034Z,101377.43
2018-04-27T04:43:00.457Z,101377.02
2018-04-27T04:45:27.945Z,101367.67
2018-04-27T04:47:55.362Z,101377.77
2018-04-27T04:50:22.795Z,101380.19
2018-04-27T04:52:51.139Z,101383.51
2018-04-27T04:55:18.629Z,101390.09
2018-04-27T04:57:46.048Z,101395.02
2018-04-27T05:00:13.479Z,101394.25
2018-04-27T05:02:40.918Z,101396.20
2018-04-27T05:05:08.341Z,101396.63
2018-04-27T05:07:36.725Z,101400.69
2018-04-27T05:10:04.182Z,101405.61
2018-04-27T05:12:31.605Z,101406.23
2018-04-27T05:14:59.095Z,101413.39
2018-04-27T05:17:26.526Z,101400.09
2018-04-27T05:19:55.349Z,101399.43
2018-04-27T05:22:22.787Z,101410.02
2018-04-27T05:24:50.266Z,101407.36
2018-04-27T05:27:17.694Z,101412.80
2018-04-27T05:29:45.176Z,101409.37
2018-04-27T05:32:12.611Z,101418.49
2018-04-27T05:34:40.021Z,101415.82
2018-04-27T05:37:07.458Z,101414.41
2018-04-27T05:39:34.870Z,101424.86
2018-04-27T05:42:02.306Z,101420.02
2018-04-27T05:44:29.729Z,101419.38
2018-04-27T05:46:57.174Z,101426.14
2018-04-27T05:49:24.602Z,101420.39
2018-04-27T05:51:52.074Z,101419.61
2018-04-27T05:54:19.530Z,101425.54
2018-04-27T05:56:46.992Z,101425.75
2018-04-27T05:59:14.404Z,101427.84
2018-04-27T06:01:41.945Z,101423.73
2018-04-27T06:04:14.226Z,101422.83
2018-04-27T06:06:42.650Z,101423.19
2018-04-27T06:09:10.211Z,101424.90
2018-04-27T06:11:37.626Z,101421.84
2018-04-27T06:14:05.088Z,101412.39
2018-04-27T06:16:32.554Z,101412.28
2018-04-27T06:18:59.959Z,101417.23
2018-04-27T06:21:27.393Z,101420.49
2018-04-27T06:23:54.952Z,101413.38
2018-04-27T06:26:22.358Z,101415.49
2018-04-27T06:28:49.769Z,101414.74
2018-04-27T06:31:17.251Z,101419.73
2018-04-27T06:33:44.663Z,101425.72
2018-04-27T06:36:12.073Z,101416.25
2018-04-27T06:38:39.507Z,101408.75
2018-04-27T06:41:06.914Z,101419.90
2018-04-27T06:43:34.337Z,101410.21
2018-04-27T06:46:01.752Z,101415.02
2018-04-27T06:48:29.211Z,101408.89
2018-04-27T06:50:57.685Z,101416.72
2018-04-27T06:53:25.149Z,101414.50
2018-04-27T06:55:53.531Z,101420.33
2018-04-27T06:58:20.960Z,101409.55
2018-04-27T07:00:48.378Z,101407.19
2018-04-27T07:03:15.808Z,101407.41
2018-04-27T07:05:44.150Z,101411.69
2018-04-27T07:08:11.633Z,101406.45
2018-04-27T07:10:40.106Z,101407.70
2018-04-27T07:13:07.562Z,101409.39
2018-04-27T07:15:35.134Z,101397.84
2018-04-27T07:18:02.567Z,101402.33
2018-04-27T07:20:30.045Z,101408.65
2018-04-27T07:22:57.465Z,101403.34
2018-04-27T07:25:24.885Z,101403.67
2018-04-27T07:27:53.309Z,101407.97
2018-04-27T07:30:20.730Z,101403.59
2018-04-27T07:32:48.154Z,101410.23
2018-04-27T07:35:15.578Z,101409.01
2018-04-27T07:37:43.001Z,101407.50
2018-04-27T07:40:10.422Z,101410.80
2018-04-27T07:42:37.864Z,101417.13
2018-04-27T07:45:05.284Z,101411.39
2018-04-27T07:47:32.717Z,101405.88
2018-04-27T07:50:00.149Z,101414.31
2018-04-27T07:52:27.575Z,101408.58
2018-04-27T07:54:55.051Z,101409.27
2018-04-27T07:57:22.479Z,101412.22
2018-04-27T07:59:50.857Z,101405.20
2018-04-27T08:02:18.350Z,101409.27
2018-04-27T08:04:45.723Z,101413.53
2018-04-27T08:07:13.263Z,101406.95
2018-04-27T08:09:40.673Z,101412.84
2018-04-27T08:12:08.095Z,101413.88
2018-04-27T08:14:35.510Z,101412.69
2018-04-27T08:17:02.943Z,101419.09
2018-04-27T08:19:30.434Z,101414.94
2018-04-27T08:21:57.882Z,101409.34
2018-04-27T08:24:25.336Z,101405.25
2018-04-27T08:26:52.738Z,101409.80
2018-04-27T08:29:20.146Z,101406.96
2018-04-27T08:31:47.609Z,101398.11
2018-04-27T08:34:15.032Z,101405.16
2018-04-27T08:36:42.470Z,101397.33
2018-04-27T08:39:09.892Z,101405.81
2018-04-27T08:41:37.360Z,101401.45
2018-04-27T08:44:04.754Z,101399.83
2018-04-27T08:46:32.255Z,101394.74
2018-04-27T08:48:59.677Z,101405.65
2018-04-27T08:51:27.170Z,101395.80
2018-04-27T08:53:54.590Z,101404.66
2018-04-27T08:56:22.046Z,101403.61
2018-04-27T08:58:50.440Z,101399.32
2018-04-27T09:01:19.861Z,101407.56
2018-04-27T09:03:47.318Z,101390.59
2018-04-27T09:06:14.844Z,101396.13
2018-04-27T09:08:42.194Z,101397.80
2018-04-27T09:11:09.894Z,101398.80
2018-04-27T09:13:37.305Z,101396.95
2018-04-27T09:16:04.717Z,101388.97
2018-04-27T09:18:32.165Z,101397.02
2018-04-27T09:20:59.574Z,101387.17
2018-04-27T09:23:27.082Z,101391.38
2018-04-27T09:25:54.537Z,101385.47
2018-04-27T09:28:22.017Z,101388.63
2018-04-27T09:30:49.453Z,101394.34
2018-04-27T09:33:16.882Z,101391.86
2018-04-27T09:35:44.297Z,101389.05
2018-04-27T09:38:11.738Z,101384.98
2018-04-27T09:40:39.188Z,101381.21
2018-04-27T09:43:06.645Z,101387.83
2018-04-27T09:45:34.102Z,101389.48
2018-04-27T09:48:03.455Z,101385.59
2018-04-27T09:50:30.949Z,101383.95
2018-04-27T09:52:58.402Z,101384.61
2018-04-27T09:55:25.848Z,101375.47
2018-04-27T09:57:53.259Z,101389.89
2018-04-27T10:00:20.767Z,101378.83
2018-04-27T10:02:48.183Z,101382.98
2018-04-27T10:05:15.693Z,101388.97
2018-04-27T10:07:43.101Z,101376.75
2018-04-27T10:10:10.601Z,101375.23
2018-04-27T10:12:38.014Z,101373.81
2018-04-27T10:15:05.540Z,101377.49
2018-04-27T10:17:32.875Z,101378.75
2018-04-27T10:20:00.330Z,101381.45
2018-04-27T10:22:28.682Z,101377.53
2018-04-27T10:24:56.982Z,101373.84
2018-04-27T10:27:24.436Z,101368.59
2018-04-27T10:29:51.845Z,101363.27
2018-04-27T10:32:19.274Z,101365.71
2018-04-27T10:34:46.699Z,101364.06
2018-04-27T10:37:14.118Z,101366.56
2018-04-27T10:39:41.529Z,101355.77
2018-04-27T10:42:08.990Z,101356.56
2018-04-27T10:44:36.406Z,101360.66
2018-04-27T10:47:03.837Z,101361.24
2018-04-27T10:49:31.250Z,101348.42
2018-04-27T10:51:58.793Z,101345.22
2018-04-27T10:54:28.169Z,101345.13
2018-04-27T10:56:55.610Z,101346.01
2018-04-27T10:59:23.026Z,101346.57
2018-04-27T11:01:50.480Z,101346.78
2018-04-27T11:04:17.885Z,101356.41
2018-04-27T11:06:45.302Z,101345.91
2018-04-27T11:09:13.663Z,101342.91
2018-04-27T11:11:41.118Z,101335.55
2018-04-27T11:14:09.485Z,101338.44
2018-04-27T11:16:37.871Z,101321.44
2018-04-27T11:19:05.338Z,101326.77
2018-04-27T11:21:33.683Z,101320.68
2018-04-27T11:24:01.260Z,101330.57
2018-04-27T11:26:28.682Z,101337.78
2018-04-27T11:28:56.118Z,101328.05
2018-04-27T11:31:27.906Z,101335.70
2018-04-27T11:33:55.353Z,101329.90
2018-04-27T11:36:22.765Z,101331.48
2018-04-27T11:38:50.214Z,101329.31
2018-04-27T11:41:17.700Z,101319.16
2018-04-27T11:43:45.123Z,101332.48
2018-04-27T11:46:14.486Z,101325.41
2018-04-27T11:48:41.910Z,101321.76
2018-04-27T11:51:10.246Z,101332.51
2018-04-27T11:53:37.669Z,101320.62
2018-04-27T11:56:05.110Z,101325.72
2018-04-27T11:58:33.443Z,101325.83
2018-04-27T12:01:00.883Z,101320.94
2018-04-27T12:03:28.352Z,101307.63
2018-04-27T12:05:55.799Z,101319.88
2018-04-27T12:08:23.214Z,101319.08
2018-04-27T12:10:50.650Z,101323.05
2018-04-27T12:13:19.211Z,101317.53
2018-04-27T12:15:46.653Z,101319.58
2018-04-27T12:18:14.127Z,101315.93
2018-04-27T12:20:41.673Z,101310.78
2018-04-27T12:23:09.126Z,101310.30
2018-04-27T12:25:36.601Z,101302.20
2018-04-27T12:28:04.010Z,101301.77
2018-04-27T12:30:31.456Z,101304.70
2018-04-27T12:32:58.890Z,101303.52
2018-04-27T12:35:26.309Z,101303.95
2018-04-27T12:37:54.681Z,101301.94
2018-04-27T12:40:22.090Z,101304.04
2018-04-27T12:42:49.606Z,101308.45
2018-04-27T12:45:17.023Z,101308.22
2018-04-27T12:47:46.458Z,101303.99
2018-04-27T12:50:14.817Z,101300.37
2018-04-27T12:52:42.267Z,101301.14
2018-04-27T12:55:09.677Z,101295.25
2018-04-27T12:57:37.151Z,101293.64
2018-04-27T13:00:05.562Z,101291.13
2018-04-27T13:02:33.950Z,101283.16
2018-04-27T13:05:01.394Z,101287.05
2018-04-27T13:07:28.822Z,101289.24
2018-04-27T13:09:59.834Z,101274.16
2018-04-27T13:12:27.240Z,101265.79
2018-04-27T13:14:54.682Z,101262.10
2018-04-27T13:17:22.102Z,101269.95
2018-04-27T13:19:49.555Z,101262.42
2018-04-27T13:22:16.968Z,101267.43
2018-04-27T13:24:44.422Z,101265.47
2018-04-27T13:27:11.918Z,101258.74
2018-04-27T13:29:39.365Z,101264.46
2018-04-27T13:32:06.799Z,101250.73
2018-04-27T13:34:34.306Z,101258.97
2018-04-27T13:37:02.634Z,101235.88
2018-04-27T13:39:31.038Z,101248.66
2018-04-27T13:41:58.445Z,101225.67
2018-04-27T13:44:25.863Z,101232.05
2018-04-27T13:46:53.298Z,101242.23
2018-04-27T13:49:21.687Z,101234.54
2018-04-27T13:51:49.136Z,101238.20
2018-04-27T13:54:16.550Z,101233.97
2018-04-27T13:56:43.990Z,101236.70
2018-04-27T13:59:12.408Z,101224.88
2018-04-27T14:01:39.854Z,101222.31
2018-04-27T14:04:07.261Z,101219.31
2018-04-27T14:06:34.710Z,101223.89
2018-04-27T14:09:02.129Z,101219.86
2018-04-27T14:11:29.581Z,101216.81
2018-04-27T14:13:57.000Z,101215.18
2018-04-27T14:16:24.482Z,101208.69
2018-04-27T14:18:51.882Z,101213.10
2018-04-27T14:21:19.294Z,101207.78
2018-04-27T14:23:46.806Z,101200.33
2018-04-27T14:26:14.222Z,101209.48
2018-04-27T14:28:41.714Z,101204.73
2018-04-27T14:31:09.276Z,101201.26
2018-04-27T14:33:36.709Z,101201.67
2018-04-27T14:36:07.357Z,101193.90
2018-04-27T14:38:34.818Z,101182.75
2018-04-27T14:41:02.285Z,101180.75
2018-04-27T14:43:29.693Z,101179.77
2018-04-27T14:45:57.189Z,101175.71
2018-04-27T14:48:24.647Z,101173.36
2018-04-27T14:50:52.061Z,101168.77
2018-04-27T14:53:19.475Z,101168.57
2018-04-27T14:55:47.933Z,101160.67
2018-04-27T14:58:15.343Z,101169.77
2018-04-27T15:00:42.798Z,101169.23
2018-04-27T15:03:10.206Z,101163.08
2018-04-27T15:05:37.662Z,101170.66
2018-04-27T15:08:06.001Z,101179.16
2018-04-27T15:10:33.446Z,101183.52
2018-04-27T15:13:00.853Z,101177.91
2018-04-27T15:15:28.306Z,101173.16
2018-04-27T15:17:55.715Z,101173.50
2018-04-27T15:20:23.158Z,101168.42
2018-04-27T15:22:50.567Z,101176.72
2018-04-27T15:25:18.010Z,101174.16
2018-04-27T15:27:45.493Z,101173.50
2018-04-27T15:30:12.946Z,101172.72
2018-04-27T15:32:40.407Z,101173.06
2018-04-27T15:35:07.826Z,101174.84
2018-04-27T15:37:35.286Z,101175.54
2018-04-27T15:40:03.738Z,101182.32
2018-04-27T15:42:31.156Z,101175.34
2018-04-27T15:44:59.502Z,101179.60
2018-04-27T15:47:26.991Z,101175.44
2018-04-27T15:49:54.448Z,101179.77
2018-04-27T15:52:22.926Z,101180.00
2018-04-27T15:54:50.383Z,101180.50
2018-04-27T15:57:17.856Z,101175.97
2018-04-27T15:59:45.296Z,101179.42
2018-04-27T16:02:12.706Z,101169.39
2018-04-27T16:04:41.122Z,101178.41
2018-04-27T16:07:08.542Z,101184.70
2018-04-27T16:09:36.957Z,101179.08
2018-04-27T16:12:04.366Z,101180.95
2018-04-27T16:14:31.824Z,101182.90
2018-04-27T16:16:59.233Z,101186.14
2018-04-27T16:19:26.675Z,101185.22
2018-04-27T16:21:54.157Z,101189.28
2018-04-27T16:24:21.593Z,101186.61
2018-04-27T16:26:49.006Z,101182.51
2018-04-27T16:29:16.517Z,101174.43
2018-04-27T16:31:43.973Z,101173.04
2018-04-27T16:34:11.422Z,101173.23
2018-04-27T16:36:38.846Z,101166.63
2018-04-27T16:39:07.257Z,101164.73
2018-04-27T16:41:34.714Z,101168.05
2018-04-27T16:44:03.409Z,101166.48
2018-04-27T16:46:30.822Z,101166.86
2018-04-27T16:48:58.239Z,101168.22
2018-04-27T16:51:25.677Z,101168.30
2018-04-27T16:53:53.230Z,101170.44
2018-04-27T16:56:20.676Z,101169.50
2018-04-27T16:58:48.089Z,101175.80
2018-04-27T17:01:16.523Z,101170.60
2018-04-27T17:03:43.999Z,101172.29
2018-04-27T17:06:11.379Z,101170.70
2018-04-27T17:08:38.899Z,101178.02
2018-04-27T17:11:07.269Z,101176.14
2018-04-27T17:13:34.774Z,101172.10
2018-04-27T17:16:02.195Z,101171.69
2018-04-27T17:18:29.614Z,101169.89
2018-04-27T17:20:57.063Z,101170.00
2018-04-27T17:23:24.484Z,101160.91
2018-04-27T17:25:52.794Z,101159.63
2018-04-27T17:28:20.995Z,101157.01
2018-04-27T17:30:48.458Z,101160.54
2018-04-27T17:33:15.899Z,101157.62
2018-04-27T17:35:43.330Z,101158.53
2018-04-27T17:38:10.781Z,101152.31
2018-04-27T17:40:39.171Z,101156.87
2018-04-27T17:43:06.631Z,101157.69
2018-04-27T17:45:34.042Z,101161.16
2018-04-27T17:48:01.648Z,101155.06
2018-04-27T17:50:29.012Z,101153.74
2018-04-27T17:52:56.494Z,101151.39
2018-04-27T17:55:23.917Z,101151.67
2018-04-27T17:57:51.409Z,101153.20
2018-04-27T18:00:18.851Z,101161.65
2018-04-27T18:02:46.262Z,101162.95
2018-04-27T18:05:13.877Z,101158.59
2018-04-27T18:07:42.221Z,101157.54
2018-04-27T18:10:09.661Z,101164.61
2018-04-27T18:12:37.173Z,101158.36
2018-04-27T18:15:04.634Z,101155.31
2018-04-27T18:17:32.054Z,101151.00
2018-04-27T18:19:59.542Z,101155.14
2018-04-27T18:22:26.966Z,101151.20
2018-04-27T18:24:54.405Z,101146.70
2018-04-27T18:27:21.918Z,101149.99
2018-04-27T18:29:50.355Z,101156.14
2018-04-27T18:32:17.707Z,101169.69
2018-04-27T18:34:45.147Z,101169.55
2018-04-27T18:37:12.557Z,101175.59
2018-04-27T18:39:40.122Z,101187.61
2018-04-27T18:42:07.533Z,101191.60
2018-04-27T18:44:35.078Z,101190.08
2018-04-27T18:47:02.494Z,101194.52
2018-04-27T18:49:29.910Z,101193.02
2018-04-27T18:51:57.349Z,101198.27
2018-04-27T18:54:24.766Z,101208.43
2018-04-27T18:56:52.212Z,101211.91
2018-04-27T18:59:19.625Z,101212.30
2018-04-27T19:01:47.066Z,101214.92
2018-04-27T19:04:15.329Z,101214.58
2018-04-27T19:06:42.769Z,101219.34
2018-04-27T19:09:10.217Z,101235.17
2018-04-27T19:11:37.663Z,101236.75
2018-04-27T19:14:05.130Z,101238.97
2018-04-27T19:16:33.514Z,101241.74
2018-04-27T19:19:01.840Z,101238.52
2018-04-27T19:21:30.264Z,101232.09
2018-04-27T19:23:57.682Z,101230.91
2018-04-27T19:26:25.137Z,101215.47
2018-04-27T19:28:52.562Z,101197.77
2018-04-27T19:31:20.002Z,101185.95
2018-04-27T19:33:47.450Z,101184.09
2018-04-27T19:36:14.904Z,101181.16
2018-04-27T19:38:42.357Z,101177.00
2018-04-27T19:41:09.781Z,101178.66
2018-04-27T19:43:38.134Z,101177.04
2018-04-27T19:46:05.650Z,101179.72
2018-04-27T19:48:33.107Z,101170.52
2018-04-27T19:51:00.565Z,101163.11
2018-04-27T19:53:28.014Z,101166.37
2018-04-27T19:55:55.485Z,101164.92
2018-04-27T19:58:22.945Z,101160.66
2018-04-27T20:00:50.373Z,101162.70
2018-04-27T20:03:17.818Z,101161.42
2018-04-27T20:05:47.325Z,101165.41
2018-04-27T20:08:15.829Z,101163.00
2018-04-27T20:10:44.024Z,101167.68
2018-04-27T20:13:12.388Z,101165.08
2018-04-27T20:15:39.815Z,101175.22
2018-04-27T20:18:11.950Z,101173.69
2018-04-27T20:20:39.469Z,101176.62
2018-04-27T20:23:08.815Z,101174.39
2018-04-27T20:25:36.324Z,101175.77
2018-04-27T20:28:05.734Z,101177.18
2018-04-27T20:30:33.185Z,101174.91
2018-04-27T20:33:00.603Z,101174.69
2018-04-27T20:35:28.052Z,101173.34
2018-04-27T20:38:02.183Z,101169.53
2018-04-27T20:40:29.669Z,101166.14
2018-04-27T20:42:57.087Z,101165.84
2018-04-27T20:45:24.534Z,101163.09
2018-04-27T20:47:51.953Z,101162.95
2018-04-27T20:50:23.798Z,101166.08
2018-04-27T20:52:51.210Z,101164.45
2018-04-27T20:55:18.653Z,101163.45
2018-04-27T20:57:47.399Z,101158.86
2018-04-27T21:00:14.845Z,101153.02
2018-04-27T21:02:43.738Z,101153.02
2018-04-27T21:05:11.490Z,101152.38
2018-04-27T21:07:38.913Z,101151.11
2018-04-27T21:10:06.335Z,101141.35
2018-04-27T21:12:33.782Z,101145.67
2018-04-27T21:15:05.754Z,101145.27
2018-04-27T21:17:33.314Z,101147.11
2018-04-27T21:20:00.754Z,101140.69
2018-04-27T21:22:28.198Z,101144.09
2018-04-27T21:24:55.695Z,101146.84
2018-04-27T21:27:23.122Z,101148.79
2018-04-27T21:29:50.566Z,101135.65
2018-04-27T21:32:18.038Z,101138.78
2018-04-27T21:34:45.487Z,101135.93
2018-04-27T21:37:12.947Z,101137.96
2018-04-27T21:39:40.370Z,101136.23
2018-04-27T21:42:13.367Z,101140.70
2018-04-27T21:44:43.505Z,101138.48
2018-04-27T21:50:03.665Z,101129.53
2018-04-27T21:52:31.125Z,101125.22
2018-04-27T21:54:58.719Z,101117.89
2018-04-27T21:57:28.675Z,101121.41
2018-04-27T22:00:03.679Z,101123.71
2018-04-27T22:05:50.722Z,101115.81
2018-04-27T22:08:24.023Z,101123.59
2018-04-27T22:10:54.074Z,101119.97
2018-04-27T22:13:22.338Z,101130.64
2018-04-27T22:15:49.783Z,101121.39
2018-04-27T22:18:17.209Z,101121.70
2018-04-27T22:20:47.275Z,101120.39
2018-04-27T22:23:15.262Z,101120.44
2018-04-27T22:25:48.185Z,101122.21
2018-04-27T22:28:21.534Z,101122.53
2018-04-27T22:30:49.706Z,101120.73
2018-04-27T22:33:22.622Z,101115.56
2018-04-27T22:42:01.490Z,101110.04
2018-04-27T22:47:28.970Z,101104.60
2018-04-27T22:49:56.446Z,101096.05
2018-04-27T22:52:23.871Z,101096.64
2018-04-27T22:54:55.977Z,101088.49
2018-04-27T22:57:36.218Z,101091.82
2018-04-27T23:00:04.938Z,101091.39
2018-04-27T23:02:33.366Z,101078.31
2018-04-27T23:05:01.674Z,101077.25
2018-04-27T23:07:30.070Z,101074.48
2018-04-27T23:09:57.494Z,101067.91
2018-04-27T23:12:36.687Z,101065.02
2018-04-27T23:15:06.858Z,101069.84
2018-04-27T23:17:34.324Z,101065.11
2018-04-27T23:23:10.480Z,101063.67
2018-04-27T23:25:46.320Z,101065.53
2018-04-27T23:28:13.761Z,101061.79
2018-04-27T23:30:42.917Z,101065.88
2018-04-27T23:33:11.074Z,101067.58
2018-04-27T23:35:38.530Z,101063.25
2018-04-27T23:38:06.082Z,101062.62
2018-04-27T23:40:33.506Z,101068.83
2018-04-27T23:43:00.966Z,101054.73
2018-04-27T23:45:30.189Z,101051.50
2018-04-27T23:47:58.606Z,101058.28
2018-04-27T23:50:26.029Z,101059.36
2018-04-27T23:52:53.478Z,101056.95
2018-04-27T23:55:20.926Z,101052.42
2018-04-27T23:57:48.347Z,101057.64
